sensor_id;sensor_type;location;lat;lon;timestamp;P1;durP1;ratioP1;P2;durP2;ratioP2
53269;SDS011;39159;45.634;9.420;2023-03-01T00:01:10;44.90;;;24.63;;
53269;SDS011;39159;45.634;9.420;2023-03-01T00:03:38;49.20;;;26.25;;
53269;SDS011;39159;45.634;9.420;2023-03-01T00:06:04;49.45;;;27.05;;
53269;SDS011;39159;45.634;9.420;2023-03-01T00:08:30;53.75;;;25.98;;
53269;SDS011;39159;45.634;9.420;2023-03-01T00:13:32;48.20;;;24.13;;
53269;SDS011;39159;45.634;9.420;2023-03-01T00:15:58;46.20;;;25.30;;
53269;SDS011;39159;45.634;9.420;2023-03-01T00:18:23;43.70;;;23.95;;
53269;SDS011;39159;45.634;9.420;2023-03-01T00:20:52;45.83;;;24.20;;
53269;SDS011;39159;45.634;9.420;2023-03-01T00:23:19;46.22;;;23.35;;
53269;SDS011;39159;45.634;9.420;2023-03-01T00:25:46;43.60;;;23.52;;
53269;SDS011;39159;45.634;9.420;2023-03-01T00:28:11;41.63;;;23.75;;
53269;SDS011;39159;45.634;9.420;2023-03-01T00:30:37;44.53;;;23.58;;
53269;SDS011;39159;45.634;9.420;2023-03-01T00:33:02;41.92;;;22.80;;
53269;SDS011;39159;45.634;9.420;2023-03-01T00:35:28;40.17;;;21.65;;
53269;SDS011;39159;45.634;9.420;2023-03-01T00:37:53;39.72;;;21.83;;
53269;SDS011;39159;45.634;9.420;2023-03-01T00:40:26;42.60;;;22.20;;
53269;SDS011;39159;45.634;9.420;2023-03-01T00:42:52;41.10;;;21.45;;
53269;SDS011;39159;45.634;9.420;2023-03-01T00:45:17;40.45;;;20.20;;
53269;SDS011;39159;45.634;9.420;2023-03-01T00:47:43;36.72;;;20.85;;
53269;SDS011;39159;45.634;9.420;2023-03-01T00:50:09;41.10;;;21.35;;
53269;SDS011;39159;45.634;9.420;2023-03-01T00:52:35;41.58;;;20.70;;
53269;SDS011;39159;45.634;9.420;2023-03-01T00:55:01;42.42;;;20.60;;
53269;SDS011;39159;45.634;9.420;2023-03-01T00:57:26;42.17;;;20.10;;
53269;SDS011;39159;45.634;9.420;2023-03-01T00:59:52;39.83;;;21.15;;
53269;SDS011;39159;45.634;9.420;2023-03-01T01:02:18;38.83;;;20.80;;
53269;SDS011;39159;45.634;9.420;2023-03-01T01:04:44;40.00;;;19.90;;
53269;SDS011;39159;45.634;9.420;2023-03-01T01:07:10;37.75;;;19.20;;
53269;SDS011;39159;45.634;9.420;2023-03-01T01:09:36;40.13;;;21.10;;
53269;SDS011;39159;45.634;9.420;2023-03-01T01:12:02;40.88;;;20.27;;
53269;SDS011;39159;45.634;9.420;2023-03-01T01:14:28;37.45;;;19.83;;
53269;SDS011;39159;45.634;9.420;2023-03-01T01:16:53;44.38;;;21.42;;
53269;SDS011;39159;45.634;9.420;2023-03-01T01:19:19;41.63;;;20.08;;
53269;SDS011;39159;45.634;9.420;2023-03-01T01:21:44;39.05;;;19.33;;
53269;SDS011;39159;45.634;9.420;2023-03-01T01:24:10;39.55;;;20.35;;
53269;SDS011;39159;45.634;9.420;2023-03-01T01:26:36;41.65;;;21.02;;
53269;SDS011;39159;45.634;9.420;2023-03-01T01:29:03;40.70;;;21.48;;
53269;SDS011;39159;45.634;9.420;2023-03-01T01:31:30;38.15;;;21.02;;
53269;SDS011;39159;45.634;9.420;2023-03-01T01:33:57;47.08;;;23.23;;
53269;SDS011;39159;45.634;9.420;2023-03-01T01:36:23;42.45;;;20.15;;
53269;SDS011;39159;45.634;9.420;2023-03-01T01:38:50;44.45;;;19.90;;
53269;SDS011;39159;45.634;9.420;2023-03-01T01:41:15;39.65;;;20.67;;
53269;SDS011;39159;45.634;9.420;2023-03-01T01:43:46;42.97;;;21.45;;
53269;SDS011;39159;45.634;9.420;2023-03-01T01:49:01;42.53;;;21.58;;
53269;SDS011;39159;45.634;9.420;2023-03-01T01:51:31;36.28;;;20.42;;
53269;SDS011;39159;45.634;9.420;2023-03-01T01:54:03;40.58;;;20.35;;
53269;SDS011;39159;45.634;9.420;2023-03-01T01:56:38;37.67;;;20.80;;
53269;SDS011;39159;45.634;9.420;2023-03-01T01:59:05;46.33;;;21.98;;
53269;SDS011;39159;45.634;9.420;2023-03-01T02:01:31;39.88;;;21.05;;
53269;SDS011;39159;45.634;9.420;2023-03-01T02:03:56;38.80;;;20.13;;
53269;SDS011;39159;45.634;9.420;2023-03-01T02:09:22;50.67;;;23.92;;
53269;SDS011;39159;45.634;9.420;2023-03-01T02:11:48;39.42;;;21.23;;
53269;SDS011;39159;45.634;9.420;2023-03-01T02:14:16;43.33;;;21.95;;
53269;SDS011;39159;45.634;9.420;2023-03-01T02:16:41;55.00;;;27.75;;
53269;SDS011;39159;45.634;9.420;2023-03-01T02:19:07;42.28;;;23.15;;
53269;SDS011;39159;45.634;9.420;2023-03-01T02:21:47;46.67;;;22.83;;
53269;SDS011;39159;45.634;9.420;2023-03-01T02:24:37;54.65;;;26.30;;
53269;SDS011;39159;45.634;9.420;2023-03-01T02:27:05;45.63;;;23.20;;
53269;SDS011;39159;45.634;9.420;2023-03-01T02:29:31;41.80;;;21.73;;
53269;SDS011;39159;45.634;9.420;2023-03-01T02:31:57;40.00;;;21.05;;
53269;SDS011;39159;45.634;9.420;2023-03-01T02:34:26;35.90;;;19.52;;
53269;SDS011;39159;45.634;9.420;2023-03-01T02:36:58;40.50;;;21.35;;
53269;SDS011;39159;45.634;9.420;2023-03-01T02:39:32;42.13;;;22.38;;
53269;SDS011;39159;45.634;9.420;2023-03-01T02:42:07;37.33;;;20.00;;
53269;SDS011;39159;45.634;9.420;2023-03-01T02:44:37;43.08;;;21.40;;
53269;SDS011;39159;45.634;9.420;2023-03-01T02:47:03;39.13;;;21.23;;
53269;SDS011;39159;45.634;9.420;2023-03-01T02:49:30;42.13;;;21.98;;
53269;SDS011;39159;45.634;9.420;2023-03-01T02:52:01;43.92;;;23.10;;
53269;SDS011;39159;45.634;9.420;2023-03-01T02:57:23;43.17;;;22.88;;
53269;SDS011;39159;45.634;9.420;2023-03-01T02:59:52;43.17;;;23.02;;
53269;SDS011;39159;45.634;9.420;2023-03-01T03:02:24;45.30;;;22.65;;
53269;SDS011;39159;45.634;9.420;2023-03-01T03:05:20;46.60;;;22.73;;
53269;SDS011;39159;45.634;9.420;2023-03-01T03:07:47;43.67;;;22.75;;
53269;SDS011;39159;45.634;9.420;2023-03-01T03:10:14;49.20;;;24.02;;
53269;SDS011;39159;45.634;9.420;2023-03-01T03:12:49;47.05;;;23.42;;
53269;SDS011;39159;45.634;9.420;2023-03-01T03:15:16;47.80;;;22.83;;
53269;SDS011;39159;45.634;9.420;2023-03-01T03:17:42;44.15;;;23.23;;
53269;SDS011;39159;45.634;9.420;2023-03-01T03:20:09;45.55;;;22.77;;
53269;SDS011;39159;45.634;9.420;2023-03-01T03:22:40;46.78;;;22.58;;
53269;SDS011;39159;45.634;9.420;2023-03-01T03:25:08;44.25;;;23.05;;
53269;SDS011;39159;45.634;9.420;2023-03-01T03:27:37;46.10;;;23.13;;
53269;SDS011;39159;45.634;9.420;2023-03-01T03:30:04;47.85;;;24.08;;
53269;SDS011;39159;45.634;9.420;2023-03-01T03:32:34;50.00;;;25.48;;
53269;SDS011;39159;45.634;9.420;2023-03-01T03:35:00;50.85;;;24.90;;
53269;SDS011;39159;45.634;9.420;2023-03-01T03:37:26;42.28;;;22.75;;
53269;SDS011;39159;45.634;9.420;2023-03-01T03:40:10;44.58;;;23.85;;
53269;SDS011;39159;45.634;9.420;2023-03-01T03:42:40;44.85;;;23.58;;
53269;SDS011;39159;45.634;9.420;2023-03-01T03:45:06;43.50;;;22.52;;
53269;SDS011;39159;45.634;9.420;2023-03-01T03:47:32;44.63;;;22.77;;
53269;SDS011;39159;45.634;9.420;2023-03-01T03:49:57;43.35;;;22.65;;
53269;SDS011;39159;45.634;9.420;2023-03-01T03:52:22;46.80;;;23.67;;
53269;SDS011;39159;45.634;9.420;2023-03-01T03:54:48;45.05;;;23.42;;
53269;SDS011;39159;45.634;9.420;2023-03-01T03:57:13;48.22;;;23.08;;
53269;SDS011;39159;45.634;9.420;2023-03-01T03:59:39;40.90;;;22.15;;
53269;SDS011;39159;45.634;9.420;2023-03-01T04:02:04;38.53;;;20.85;;
53269;SDS011;39159;45.634;9.420;2023-03-01T04:04:30;46.50;;;23.70;;
53269;SDS011;39159;45.634;9.420;2023-03-01T04:06:55;42.88;;;22.30;;
53269;SDS011;39159;45.634;9.420;2023-03-01T04:09:21;45.10;;;23.20;;
53269;SDS011;39159;45.634;9.420;2023-03-01T04:11:46;42.72;;;23.17;;
53269;SDS011;39159;45.634;9.420;2023-03-01T04:14:12;39.97;;;22.05;;
53269;SDS011;39159;45.634;9.420;2023-03-01T04:16:37;44.13;;;22.90;;
53269;SDS011;39159;45.634;9.420;2023-03-01T04:19:02;44.67;;;22.52;;
53269;SDS011;39159;45.634;9.420;2023-03-01T04:21:28;45.15;;;22.70;;
53269;SDS011;39159;45.634;9.420;2023-03-01T04:23:53;39.58;;;22.27;;
53269;SDS011;39159;45.634;9.420;2023-03-01T04:26:19;43.75;;;23.30;;
53269;SDS011;39159;45.634;9.420;2023-03-01T04:28:45;40.95;;;21.77;;
53269;SDS011;39159;45.634;9.420;2023-03-01T04:31:13;44.20;;;22.48;;
53269;SDS011;39159;45.634;9.420;2023-03-01T04:33:50;47.60;;;23.77;;
53269;SDS011;39159;45.634;9.420;2023-03-01T04:36:17;47.60;;;23.75;;
53269;SDS011;39159;45.634;9.420;2023-03-01T04:38:44;41.88;;;22.70;;
53269;SDS011;39159;45.634;9.420;2023-03-01T04:41:12;41.75;;;22.52;;
53269;SDS011;39159;45.634;9.420;2023-03-01T04:43:38;46.92;;;23.60;;
53269;SDS011;39159;45.634;9.420;2023-03-01T04:46:04;44.97;;;23.90;;
53269;SDS011;39159;45.634;9.420;2023-03-01T04:48:34;55.63;;;23.25;;
53269;SDS011;39159;45.634;9.420;2023-03-01T04:51:00;44.35;;;22.27;;
53269;SDS011;39159;45.634;9.420;2023-03-01T04:53:26;50.13;;;23.92;;
53269;SDS011;39159;45.634;9.420;2023-03-01T04:55:53;45.33;;;23.08;;
53269;SDS011;39159;45.634;9.420;2023-03-01T04:58:19;47.42;;;23.90;;
53269;SDS011;39159;45.634;9.420;2023-03-01T05:00:45;50.30;;;24.35;;
53269;SDS011;39159;45.634;9.420;2023-03-01T05:03:10;50.65;;;24.42;;
53269;SDS011;39159;45.634;9.420;2023-03-01T05:05:36;47.38;;;23.98;;
53269;SDS011;39159;45.634;9.420;2023-03-01T05:08:04;45.78;;;23.08;;
53269;SDS011;39159;45.634;9.420;2023-03-01T05:10:32;58.35;;;28.13;;
53269;SDS011;39159;45.634;9.420;2023-03-01T05:13:00;45.55;;;24.50;;
53269;SDS011;39159;45.634;9.420;2023-03-01T05:15:26;47.63;;;24.05;;
53269;SDS011;39159;45.634;9.420;2023-03-01T05:17:54;45.72;;;22.85;;
53269;SDS011;39159;45.634;9.420;2023-03-01T05:20:21;45.47;;;23.05;;
53269;SDS011;39159;45.634;9.420;2023-03-01T05:22:50;52.00;;;24.33;;
53269;SDS011;39159;45.634;9.420;2023-03-01T05:25:16;50.85;;;25.75;;
53269;SDS011;39159;45.634;9.420;2023-03-01T05:27:42;43.92;;;22.90;;
53269;SDS011;39159;45.634;9.420;2023-03-01T05:30:08;46.70;;;24.35;;
53269;SDS011;39159;45.634;9.420;2023-03-01T05:32:41;39.92;;;21.23;;
53269;SDS011;39159;45.634;9.420;2023-03-01T05:35:08;41.25;;;22.80;;
53269;SDS011;39159;45.634;9.420;2023-03-01T05:37:34;45.17;;;23.38;;
53269;SDS011;39159;45.634;9.420;2023-03-01T05:40:00;46.78;;;23.65;;
53269;SDS011;39159;45.634;9.420;2023-03-01T05:42:26;46.30;;;23.08;;
53269;SDS011;39159;45.634;9.420;2023-03-01T05:44:51;42.35;;;22.52;;
53269;SDS011;39159;45.634;9.420;2023-03-01T05:47:17;42.28;;;22.67;;
53269;SDS011;39159;45.634;9.420;2023-03-01T05:49:42;43.35;;;22.25;;
53269;SDS011;39159;45.634;9.420;2023-03-01T05:52:07;40.58;;;22.65;;
53269;SDS011;39159;45.634;9.420;2023-03-01T05:54:33;41.25;;;21.08;;
53269;SDS011;39159;45.634;9.420;2023-03-01T05:56:58;38.80;;;21.08;;
53269;SDS011;39159;45.634;9.420;2023-03-01T05:59:24;41.80;;;22.08;;
53269;SDS011;39159;45.634;9.420;2023-03-01T06:01:49;40.92;;;21.30;;
53269;SDS011;39159;45.634;9.420;2023-03-01T06:04:15;46.72;;;25.33;;
53269;SDS011;39159;45.634;9.420;2023-03-01T06:06:41;39.42;;;22.00;;
53269;SDS011;39159;45.634;9.420;2023-03-01T06:09:07;43.90;;;24.15;;
53269;SDS011;39159;45.634;9.420;2023-03-01T06:11:34;38.63;;;21.30;;
53269;SDS011;39159;45.634;9.420;2023-03-01T06:14:00;37.53;;;21.60;;
53269;SDS011;39159;45.634;9.420;2023-03-01T06:16:26;41.55;;;21.85;;
53269;SDS011;39159;45.634;9.420;2023-03-01T06:18:51;38.47;;;21.48;;
53269;SDS011;39159;45.634;9.420;2023-03-01T06:21:17;44.38;;;22.52;;
53269;SDS011;39159;45.634;9.420;2023-03-01T06:23:42;42.22;;;21.75;;
53269;SDS011;39159;45.634;9.420;2023-03-01T06:26:08;38.28;;;21.02;;
53269;SDS011;39159;45.634;9.420;2023-03-01T06:28:34;44.60;;;22.92;;
53269;SDS011;39159;45.634;9.420;2023-03-01T06:31:00;40.80;;;22.65;;
53269;SDS011;39159;45.634;9.420;2023-03-01T06:33:25;38.30;;;20.83;;
53269;SDS011;39159;45.634;9.420;2023-03-01T06:35:51;38.40;;;21.25;;
53269;SDS011;39159;45.634;9.420;2023-03-01T06:38:19;39.70;;;22.27;;
53269;SDS011;39159;45.634;9.420;2023-03-01T06:40:45;42.25;;;22.08;;
53269;SDS011;39159;45.634;9.420;2023-03-01T06:43:18;43.47;;;22.42;;
53269;SDS011;39159;45.634;9.420;2023-03-01T06:45:43;42.45;;;21.45;;
53269;SDS011;39159;45.634;9.420;2023-03-01T06:48:08;42.80;;;21.65;;
53269;SDS011;39159;45.634;9.420;2023-03-01T06:50:35;42.10;;;21.80;;
53269;SDS011;39159;45.634;9.420;2023-03-01T06:53:00;40.22;;;20.30;;
53269;SDS011;39159;45.634;9.420;2023-03-01T06:55:26;42.22;;;21.00;;
53269;SDS011;39159;45.634;9.420;2023-03-01T06:57:55;42.35;;;22.00;;
53269;SDS011;39159;45.634;9.420;2023-03-01T07:00:24;41.10;;;22.58;;
53269;SDS011;39159;45.634;9.420;2023-03-01T07:02:50;40.05;;;22.50;;
53269;SDS011;39159;45.634;9.420;2023-03-01T07:05:16;41.10;;;22.33;;
53269;SDS011;39159;45.634;9.420;2023-03-01T07:07:42;47.25;;;22.45;;
53269;SDS011;39159;45.634;9.420;2023-03-01T07:10:08;51.40;;;21.55;;
53269;SDS011;39159;45.634;9.420;2023-03-01T07:12:34;46.72;;;22.20;;
53269;SDS011;39159;45.634;9.420;2023-03-01T07:14:59;44.35;;;21.83;;
53269;SDS011;39159;45.634;9.420;2023-03-01T07:17:25;48.00;;;22.95;;
53269;SDS011;39159;45.634;9.420;2023-03-01T07:19:50;47.92;;;24.05;;
53269;SDS011;39159;45.634;9.420;2023-03-01T07:22:15;46.90;;;23.27;;
53269;SDS011;39159;45.634;9.420;2023-03-01T07:24:42;49.28;;;23.98;;
53269;SDS011;39159;45.634;9.420;2023-03-01T07:27:07;45.45;;;23.48;;
53269;SDS011;39159;45.634;9.420;2023-03-01T07:29:33;46.95;;;23.33;;
53269;SDS011;39159;45.634;9.420;2023-03-01T07:31:58;41.47;;;22.90;;
53269;SDS011;39159;45.634;9.420;2023-03-01T07:34:24;45.55;;;23.90;;
53269;SDS011;39159;45.634;9.420;2023-03-01T07:36:49;43.90;;;22.58;;
53269;SDS011;39159;45.634;9.420;2023-03-01T07:39:15;45.05;;;22.50;;
53269;SDS011;39159;45.634;9.420;2023-03-01T07:41:40;41.15;;;22.10;;
53269;SDS011;39159;45.634;9.420;2023-03-01T07:44:05;48.47;;;22.83;;
53269;SDS011;39159;45.634;9.420;2023-03-01T07:46:31;43.03;;;21.98;;
53269;SDS011;39159;45.634;9.420;2023-03-01T07:48:57;41.17;;;22.63;;
53269;SDS011;39159;45.634;9.420;2023-03-01T07:51:23;48.40;;;24.42;;
53269;SDS011;39159;45.634;9.420;2023-03-01T07:53:48;42.65;;;22.48;;
53269;SDS011;39159;45.634;9.420;2023-03-01T07:56:14;46.15;;;23.70;;
53269;SDS011;39159;45.634;9.420;2023-03-01T07:58:42;45.35;;;23.50;;
53269;SDS011;39159;45.634;9.420;2023-03-01T08:01:10;46.47;;;23.23;;
53269;SDS011;39159;45.634;9.420;2023-03-01T08:03:37;43.65;;;23.67;;
53269;SDS011;39159;45.634;9.420;2023-03-01T08:06:04;45.33;;;23.55;;
53269;SDS011;39159;45.634;9.420;2023-03-01T08:08:31;48.30;;;24.23;;
53269;SDS011;39159;45.634;9.420;2023-03-01T08:10:57;46.13;;;23.27;;
53269;SDS011;39159;45.634;9.420;2023-03-01T08:13:26;46.03;;;23.08;;
53269;SDS011;39159;45.634;9.420;2023-03-01T08:15:52;46.33;;;23.20;;
53269;SDS011;39159;45.634;9.420;2023-03-01T08:18:19;48.58;;;23.55;;
53269;SDS011;39159;45.634;9.420;2023-03-01T08:20:46;46.85;;;23.77;;
53269;SDS011;39159;45.634;9.420;2023-03-01T08:23:12;45.90;;;23.40;;
53269;SDS011;39159;45.634;9.420;2023-03-01T08:25:38;41.78;;;23.38;;
53269;SDS011;39159;45.634;9.420;2023-03-01T08:28:03;45.55;;;22.73;;
53269;SDS011;39159;45.634;9.420;2023-03-01T08:30:30;45.25;;;23.90;;
53269;SDS011;39159;45.634;9.420;2023-03-01T08:32:55;45.15;;;23.38;;
53269;SDS011;39159;45.634;9.420;2023-03-01T08:35:21;45.80;;;23.30;;
53269;SDS011;39159;45.634;9.420;2023-03-01T08:37:46;47.05;;;23.70;;
53269;SDS011;39159;45.634;9.420;2023-03-01T08:40:12;46.75;;;22.48;;
53269;SDS011;39159;45.634;9.420;2023-03-01T08:42:38;42.28;;;21.77;;
53269;SDS011;39159;45.634;9.420;2023-03-01T08:45:04;48.42;;;22.08;;
53269;SDS011;39159;45.634;9.420;2023-03-01T08:47:30;40.55;;;20.42;;
53269;SDS011;39159;45.634;9.420;2023-03-01T08:49:56;34.28;;;18.63;;
53269;SDS011;39159;45.634;9.420;2023-03-01T08:52:21;34.13;;;17.95;;
53269;SDS011;39159;45.634;9.420;2023-03-01T08:54:47;34.50;;;18.70;;
53269;SDS011;39159;45.634;9.420;2023-03-01T08:57:13;37.22;;;17.85;;
53269;SDS011;39159;45.634;9.420;2023-03-01T08:59:39;36.30;;;17.02;;
53269;SDS011;39159;45.634;9.420;2023-03-01T09:02:08;25.67;;;15.48;;
53269;SDS011;39159;45.634;9.420;2023-03-01T09:04:38;27.83;;;16.27;;
53269;SDS011;39159;45.634;9.420;2023-03-01T09:07:03;29.70;;;15.43;;
53269;SDS011;39159;45.634;9.420;2023-03-01T09:09:29;27.67;;;14.80;;
53269;SDS011;39159;45.634;9.420;2023-03-01T09:11:54;43.70;;;15.45;;
53269;SDS011;39159;45.634;9.420;2023-03-01T09:14:19;30.85;;;15.20;;
53269;SDS011;39159;45.634;9.420;2023-03-01T09:16:45;28.13;;;14.40;;
53269;SDS011;39159;45.634;9.420;2023-03-01T09:19:11;26.63;;;14.50;;
53269;SDS011;39159;45.634;9.420;2023-03-01T09:21:37;26.33;;;14.30;;
53269;SDS011;39159;45.634;9.420;2023-03-01T09:24:02;22.88;;;12.80;;
53269;SDS011;39159;45.634;9.420;2023-03-01T09:26:28;25.58;;;14.90;;
53269;SDS011;39159;45.634;9.420;2023-03-01T09:28:55;30.77;;;15.45;;
53269;SDS011;39159;45.634;9.420;2023-03-01T09:31:21;30.80;;;15.25;;
53269;SDS011;39159;45.634;9.420;2023-03-01T09:33:49;29.13;;;17.63;;
53269;SDS011;39159;45.634;9.420;2023-03-01T09:36:16;32.10;;;18.00;;
53269;SDS011;39159;45.634;9.420;2023-03-01T09:38:44;30.30;;;17.70;;
53269;SDS011;39159;45.634;9.420;2023-03-01T09:41:10;30.55;;;18.30;;
53269;SDS011;39159;45.634;9.420;2023-03-01T09:43:49;32.92;;;19.17;;
53269;SDS011;39159;45.634;9.420;2023-03-01T09:46:21;36.53;;;21.10;;
53269;SDS011;39159;45.634;9.420;2023-03-01T09:48:52;39.17;;;21.35;;
53269;SDS011;39159;45.634;9.420;2023-03-01T09:51:40;40.40;;;21.20;;
53269;SDS011;39159;45.634;9.420;2023-03-01T09:54:08;36.92;;;21.02;;
53269;SDS011;39159;45.634;9.420;2023-03-01T09:56:46;37.13;;;21.45;;
53269;SDS011;39159;45.634;9.420;2023-03-01T10:02:14;35.90;;;20.00;;
53269;SDS011;39159;45.634;9.420;2023-03-01T10:05:09;34.10;;;19.38;;
53269;SDS011;39159;45.634;9.420;2023-03-01T10:08:00;36.50;;;20.98;;
53269;SDS011;39159;45.634;9.420;2023-03-01T10:10:34;33.60;;;19.52;;
53269;SDS011;39159;45.634;9.420;2023-03-01T10:13:04;37.80;;;19.83;;
53269;SDS011;39159;45.634;9.420;2023-03-01T10:15:44;42.70;;;21.75;;
53269;SDS011;39159;45.634;9.420;2023-03-01T10:18:19;38.20;;;22.80;;
53269;SDS011;39159;45.634;9.420;2023-03-01T10:23:24;39.42;;;22.10;;
53269;SDS011;39159;45.634;9.420;2023-03-01T10:31:18;37.35;;;21.35;;
53269;SDS011;39159;45.634;9.420;2023-03-01T10:33:47;35.37;;;19.93;;
53269;SDS011;39159;45.634;9.420;2023-03-01T10:36:16;33.65;;;19.35;;
53269;SDS011;39159;45.634;9.420;2023-03-01T10:38:52;37.17;;;21.40;;
53269;SDS011;39159;45.634;9.420;2023-03-01T10:41:23;37.85;;;21.35;;
53269;SDS011;39159;45.634;9.420;2023-03-01T10:43:57;35.53;;;20.67;;
53269;SDS011;39159;45.634;9.420;2023-03-01T10:46:25;39.28;;;22.27;;
53269;SDS011;39159;45.634;9.420;2023-03-01T10:49:10;38.50;;;22.13;;
53269;SDS011;39159;45.634;9.420;2023-03-01T10:51:40;34.20;;;21.40;;
53269;SDS011;39159;45.634;9.420;2023-03-01T10:54:17;36.15;;;20.83;;
53269;SDS011;39159;45.634;9.420;2023-03-01T10:56:51;38.28;;;22.33;;
53269;SDS011;39159;45.634;9.420;2023-03-01T10:59:26;34.50;;;20.30;;
53269;SDS011;39159;45.634;9.420;2023-03-01T11:05:23;33.63;;;20.67;;
53269;SDS011;39159;45.634;9.420;2023-03-01T11:07:52;34.03;;;20.90;;
53269;SDS011;39159;45.634;9.420;2023-03-01T11:12:50;32.75;;;21.15;;
53269;SDS011;39159;45.634;9.420;2023-03-01T11:15:30;34.22;;;20.48;;
53269;SDS011;39159;45.634;9.420;2023-03-01T11:17:56;36.25;;;21.60;;
53269;SDS011;39159;45.634;9.420;2023-03-01T11:23:01;37.20;;;21.20;;
53269;SDS011;39159;45.634;9.420;2023-03-01T11:25:33;34.55;;;21.98;;
53269;SDS011;39159;45.634;9.420;2023-03-01T11:28:03;39.90;;;22.98;;
53269;SDS011;39159;45.634;9.420;2023-03-01T11:30:41;39.75;;;21.45;;
53269;SDS011;39159;45.634;9.420;2023-03-01T11:33:20;33.70;;;21.00;;
53269;SDS011;39159;45.634;9.420;2023-03-01T11:36:03;38.50;;;22.92;;
53269;SDS011;39159;45.634;9.420;2023-03-01T11:38:34;43.78;;;22.73;;
53269;SDS011;39159;45.634;9.420;2023-03-01T11:41:17;33.75;;;21.45;;
53269;SDS011;39159;45.634;9.420;2023-03-01T11:51:56;34.22;;;21.00;;
53269;SDS011;39159;45.634;9.420;2023-03-01T11:59:59;35.92;;;21.55;;
53269;SDS011;39159;45.634;9.420;2023-03-01T12:02:40;34.08;;;20.75;;
53269;SDS011;39159;45.634;9.420;2023-03-01T12:05:23;34.08;;;21.00;;
53269;SDS011;39159;45.634;9.420;2023-03-01T12:08:15;36.38;;;20.17;;
53269;SDS011;39159;45.634;9.420;2023-03-01T12:16:37;36.00;;;20.83;;
53269;SDS011;39159;45.634;9.420;2023-03-01T12:38:37;34.63;;;19.30;;
53269;SDS011;39159;45.634;9.420;2023-03-01T12:41:21;32.13;;;19.15;;
53269;SDS011;39159;45.634;9.420;2023-03-01T12:46:52;34.33;;;19.75;;
53269;SDS011;39159;45.634;9.420;2023-03-01T12:55:24;31.38;;;19.95;;
53269;SDS011;39159;45.634;9.420;2023-03-01T13:05:56;31.95;;;20.02;;
53269;SDS011;39159;45.634;9.420;2023-03-01T13:08:48;30.63;;;19.23;;
53269;SDS011;39159;45.634;9.420;2023-03-01T13:11:16;30.20;;;17.80;;
53269;SDS011;39159;45.634;9.420;2023-03-01T13:13:44;29.30;;;18.60;;
53269;SDS011;39159;45.634;9.420;2023-03-01T13:21:40;35.08;;;19.42;;
53269;SDS011;39159;45.634;9.420;2023-03-01T13:24:24;29.73;;;18.48;;
53269;SDS011;39159;45.634;9.420;2023-03-01T13:29:32;33.28;;;18.75;;
53269;SDS011;39159;45.634;9.420;2023-03-01T13:38:36;35.85;;;19.50;;
53269;SDS011;39159;45.634;9.420;2023-03-01T13:41:09;32.72;;;18.42;;
53269;SDS011;39159;45.634;9.420;2023-03-01T13:43:36;33.50;;;19.98;;
53269;SDS011;39159;45.634;9.420;2023-03-01T13:46:10;31.98;;;18.55;;
53269;SDS011;39159;45.634;9.420;2023-03-01T13:48:42;36.60;;;20.40;;
53269;SDS011;39159;45.634;9.420;2023-03-01T13:51:10;34.10;;;18.40;;
53269;SDS011;39159;45.634;9.420;2023-03-01T13:53:39;35.95;;;20.35;;
53269;SDS011;39159;45.634;9.420;2023-03-01T13:56:09;33.58;;;19.88;;
53269;SDS011;39159;45.634;9.420;2023-03-01T13:58:46;32.72;;;19.17;;
53269;SDS011;39159;45.634;9.420;2023-03-01T14:03:53;38.33;;;20.05;;
53269;SDS011;39159;45.634;9.420;2023-03-01T14:06:25;33.40;;;19.80;;
53269;SDS011;39159;45.634;9.420;2023-03-01T14:09:00;33.78;;;19.70;;
53269;SDS011;39159;45.634;9.420;2023-03-01T14:15:14;41.83;;;20.33;;
53269;SDS011;39159;45.634;9.420;2023-03-01T14:17:36;33.97;;;20.00;;
53269;SDS011;39159;45.634;9.420;2023-03-01T14:20:16;37.78;;;20.30;;
53269;SDS011;39159;45.634;9.420;2023-03-01T14:22:42;35.22;;;20.20;;
53269;SDS011;39159;45.634;9.420;2023-03-01T14:30:24;34.30;;;20.80;;
53269;SDS011;39159;45.634;9.420;2023-03-01T14:32:56;31.85;;;19.05;;
53269;SDS011;39159;45.634;9.420;2023-03-01T14:35:33;39.13;;;21.02;;
53269;SDS011;39159;45.634;9.420;2023-03-01T14:38:01;36.90;;;20.33;;
53269;SDS011;39159;45.634;9.420;2023-03-01T14:40:28;32.80;;;20.13;;
53269;SDS011;39159;45.634;9.420;2023-03-01T14:42:58;38.25;;;20.70;;
53269;SDS011;39159;45.634;9.420;2023-03-01T14:45:26;39.58;;;21.05;;
53269;SDS011;39159;45.634;9.420;2023-03-01T14:47:54;43.40;;;21.45;;
53269;SDS011;39159;45.634;9.420;2023-03-01T14:52:53;37.55;;;20.55;;
53269;SDS011;39159;45.634;9.420;2023-03-01T14:55:31;34.97;;;20.17;;
53269;SDS011;39159;45.634;9.420;2023-03-01T14:58:10;37.17;;;20.58;;
53269;SDS011;39159;45.634;9.420;2023-03-01T15:00:38;37.60;;;20.55;;
53269;SDS011;39159;45.634;9.420;2023-03-01T15:03:14;42.00;;;21.17;;
53269;SDS011;39159;45.634;9.420;2023-03-01T15:05:56;38.45;;;21.15;;
53269;SDS011;39159;45.634;9.420;2023-03-01T15:08:24;36.75;;;21.30;;
53269;SDS011;39159;45.634;9.420;2023-03-01T15:11:02;42.10;;;21.40;;
53269;SDS011;39159;45.634;9.420;2023-03-01T15:13:31;37.20;;;20.40;;
53269;SDS011;39159;45.634;9.420;2023-03-01T15:16:02;43.60;;;21.60;;
53269;SDS011;39159;45.634;9.420;2023-03-01T15:18:30;39.30;;;22.05;;
53269;SDS011;39159;45.634;9.420;2023-03-01T15:21:02;38.90;;;21.08;;
53269;SDS011;39159;45.634;9.420;2023-03-01T15:23:31;42.63;;;21.80;;
53269;SDS011;39159;45.634;9.420;2023-03-01T15:25:57;38.45;;;20.77;;
53269;SDS011;39159;45.634;9.420;2023-03-01T15:28:39;43.25;;;22.10;;
53269;SDS011;39159;45.634;9.420;2023-03-01T15:34:30;38.15;;;20.77;;
53269;SDS011;39159;45.634;9.420;2023-03-01T15:36:57;41.20;;;21.65;;
53269;SDS011;39159;45.634;9.420;2023-03-01T15:41:50;39.72;;;22.27;;
53269;SDS011;39159;45.634;9.420;2023-03-01T15:44:26;38.60;;;21.85;;
53269;SDS011;39159;45.634;9.420;2023-03-01T15:46:56;44.13;;;24.55;;
53269;SDS011;39159;45.634;9.420;2023-03-01T15:52:03;38.20;;;22.40;;
53269;SDS011;39159;45.634;9.420;2023-03-01T15:54:30;44.17;;;23.05;;
53269;SDS011;39159;45.634;9.420;2023-03-01T15:56:56;39.35;;;21.60;;
53269;SDS011;39159;45.634;9.420;2023-03-01T15:59:21;40.65;;;23.48;;
53269;SDS011;39159;45.634;9.420;2023-03-01T16:01:47;44.28;;;22.42;;
53269;SDS011;39159;45.634;9.420;2023-03-01T16:04:15;49.67;;;23.85;;
53269;SDS011;39159;45.634;9.420;2023-03-01T16:06:47;43.05;;;23.70;;
53269;SDS011;39159;45.634;9.420;2023-03-01T16:09:18;41.45;;;23.80;;
53269;SDS011;39159;45.634;9.420;2023-03-01T16:11:48;46.45;;;24.60;;
53269;SDS011;39159;45.634;9.420;2023-03-01T16:14:13;41.72;;;23.48;;
53269;SDS011;39159;45.634;9.420;2023-03-01T16:16:40;46.25;;;24.00;;
53269;SDS011;39159;45.634;9.420;2023-03-01T16:19:05;45.70;;;25.35;;
53269;SDS011;39159;45.634;9.420;2023-03-01T16:21:30;43.75;;;24.38;;
53269;SDS011;39159;45.634;9.420;2023-03-01T16:23:56;42.67;;;23.38;;
53269;SDS011;39159;45.634;9.420;2023-03-01T16:26:21;48.83;;;25.15;;
53269;SDS011;39159;45.634;9.420;2023-03-01T16:28:47;49.90;;;25.92;;
53269;SDS011;39159;45.634;9.420;2023-03-01T16:31:16;45.83;;;24.00;;
53269;SDS011;39159;45.634;9.420;2023-03-01T16:33:43;52.15;;;25.05;;